Capitol Logistics 92




KSFO
San Francisco International Airport
San Francisco, California
RJAA
Tokyo-Narita International Airport
Tokyo,

Route Details

Aircraft Information
Group: Large Widebodies
Types: B744,MD11
Route Data
Demand: L
Distance: 4447nm
Duration: 10h 44m
Recm'd Route: GNNRR2 ALCOA 3800N/13000W 3800N/14000W 3700N/15000W 3600N/16000W 3500N/17000W 3500N/17500W 3500N/18000E 3500N/17500E 3500N/17000E 3500N/16500E 3500N/16000E 3500N/15500E 3500N/15000E SEALS OTR13 LAPIL Y811 POROT Y809 SUPOK
Origin Wx: KSFO 270456Z 24008KT 10SM FEW009 SCT180 15/11 A2998 RMK AO2 SLP153 T01500106
Dest. Wx: RJAA 270511Z 14011KT 110V170 9999 FEW008 BKN010 BKN/// 22/20 Q0997 RMK 1ST008 5CU010 A2946
Notes:

Financial History
Total Freight: 206,843lbs
Average Load: 103,422lbs/flt
Fuel Used: 646,126lbs
Avg. Fuel Used: 323,063lbs/flt
Fuel Expense: $219,420
Avg. Fuel Expense: $109,710
Avg. Fuel Cost: $0.34/lbs
Total Gross Income: $510,075
Pilot Pay: $288
Total Expenses: $68,721
Total Revenue: $218,882
Average Revenue: $255,037.42